TimeCST,TemperatureF,Dew PointF,Humidity,Sea Level PressureIn,VisibilityMPH,Wind Direction,Wind SpeedMPH,Gust SpeedMPH,PrecipitationIn,Events,Conditions,WindDirDegrees,DateUTC
12:55 AM,10.0,6.1,84,30.38,10.0,SSE,3.5,-,N/A,,Clear,160,2013-01-23 06:55:00
1:55 AM,10.0,6.1,84,30.36,10.0,SSE,6.9,-,N/A,,Clear,160,2013-01-23 07:55:00
2:55 AM,10.9,7.0,84,30.34,10.0,SSE,6.9,-,N/A,,Clear,160,2013-01-23 08:55:00
3:55 AM,10.0,6.1,84,30.33,10.0,SSE,4.6,-,N/A,,Clear,150,2013-01-23 09:55:00
4:55 AM,9.0,5.0,84,30.31,10.0,SSE,5.8,-,N/A,,Clear,160,2013-01-23 10:55:00
5:55 AM,9.0,5.0,84,30.31,10.0,South,5.8,-,N/A,,Clear,170,2013-01-23 11:55:00
6:55 AM,9.0,6.1,88,30.30,10.0,South,4.6,-,N/A,,Clear,170,2013-01-23 12:55:00
7:55 AM,10.9,7.0,84,30.29,10.0,South,4.6,-,N/A,,Clear,170,2013-01-23 13:55:00
8:55 AM,16.0,10.0,77,30.28,10.0,SSW,6.9,-,N/A,,Clear,210,2013-01-23 14:55:00
9:55 AM,21.9,12.0,66,30.27,10.0,WSW,9.2,-,N/A,,Clear,240,2013-01-23 15:55:00
10:55 AM,28.0,12.9,53,30.26,10.0,WSW,6.9,-,N/A,,Clear,240,2013-01-23 16:55:00
11:55 AM,33.1,15.1,48,30.24,10.0,West,9.2,-,N/A,,Clear,270,2013-01-23 17:55:00
12:55 PM,36.0,16.0,44,30.20,10.0,West,10.4,-,N/A,,Clear,270,2013-01-23 18:55:00
1:55 PM,39.0,17.1,41,30.20,10.0,West,10.4,-,N/A,,Clear,280,2013-01-23 19:55:00
2:55 PM,39.9,17.1,40,30.21,10.0,NW,8.1,-,N/A,,Clear,320,2013-01-23 20:55:00
3:55 PM,37.4,17.6,45,30.18,10.0,NW,10.4,18.4,N/A,,Clear,310,2013-01-23 21:55:00
4:55 PM,34.0,15.1,46,30.26,10.0,NNW,9.2,19.6,N/A,,Clear,330,2013-01-23 22:55:00
5:55 PM,30.9,14.0,50,30.30,10.0,NNW,10.4,-,N/A,,Clear,330,2013-01-23 23:55:00
6:55 PM,28.0,14.0,56,30.32,10.0,North,11.5,-,N/A,,Clear,350,2013-01-24 00:55:00
7:55 PM,25.0,14.0,63,30.35,10.0,North,11.5,-,N/A,,Clear,360,2013-01-24 01:55:00
8:55 PM,21.9,12.9,68,30.38,10.0,North,11.5,17.3,N/A,,Clear,350,2013-01-24 02:55:00
9:55 PM,19.9,7.0,57,30.42,10.0,NNW,10.4,20.7,N/A,,Clear,340,2013-01-24 03:55:00
10:55 PM,16.0,1.0,52,30.45,10.0,North,12.7,21.9,N/A,,Clear,10,2013-01-24 04:55:00
11:55 PM,12.0,-0.0,59,30.50,10.0,North,12.7,-,N/A,,Clear,360,2013-01-24 05:55:00